createdAt,value
2023-02-15T00:02:58.291Z,56.62
2023-02-15T00:06:02.227Z,57.05
2023-02-15T00:09:06.607Z,56.76
2023-02-15T00:12:11.669Z,57.12
2023-02-15T00:15:16.947Z,57.44
2023-02-15T00:18:20.777Z,57.81
2023-02-15T00:21:24.368Z,57.49
2023-02-15T00:24:28.327Z,57.62
2023-02-15T00:27:32.009Z,58.04
2023-02-15T00:30:37.182Z,58.05
2023-02-15T00:33:41.766Z,58.74
2023-02-15T00:36:46.347Z,58.28
2023-02-15T00:39:51.575Z,58.70
2023-02-15T00:42:55.361Z,58.55
2023-02-15T00:46:01.474Z,58.24
2023-02-15T00:49:05.878Z,57.93
2023-02-15T00:52:09.531Z,57.60
2023-02-15T00:55:13.129Z,58.18
2023-02-15T00:58:17.517Z,57.99
2023-02-15T01:01:24.704Z,57.80
2023-02-15T01:04:28.468Z,58.18
2023-02-15T01:07:34.364Z,57.77
2023-02-15T01:10:38.461Z,57.71
2023-02-15T01:13:42.837Z,57.86
2023-02-15T01:16:48.043Z,57.91
2023-02-15T01:19:52.493Z,57.92
2023-02-15T01:22:57.336Z,58.01
2023-02-15T01:26:04.392Z,57.82
2023-02-15T01:29:08.201Z,58.36
2023-02-15T01:32:13.335Z,58.61
2023-02-15T01:35:19.618Z,58.08
2023-02-15T01:38:23.943Z,58.43
2023-02-15T01:41:28.411Z,57.83
2023-02-15T01:44:53.192Z,57.89
2023-02-15T01:48:03.154Z,57.92
2023-02-15T01:51:06.957Z,57.79
2023-02-15T01:54:18.781Z,57.22
2023-02-15T01:57:26.547Z,56.97
2023-02-15T02:00:30.707Z,56.71
2023-02-15T02:03:45.706Z,56.50
2023-02-15T02:06:52.477Z,56.90
2023-02-15T02:09:56.288Z,57.24
2023-02-15T02:13:05.708Z,57.01
2023-02-15T02:16:15.565Z,57.11
2023-02-15T02:19:48.350Z,57.23
2023-02-15T02:23:18.328Z,57.46
2023-02-15T02:27:03.962Z,57.58
2023-02-15T02:30:36.687Z,57.71
2023-02-15T02:33:55.642Z,57.86
2023-02-15T02:37:06.499Z,57.57
2023-02-15T02:40:16.807Z,58.00
2023-02-15T02:43:28.904Z,57.78
2023-02-15T02:46:38.553Z,57.89
2023-02-15T02:49:45.936Z,57.89
2023-02-15T02:52:51.856Z,57.50
2023-02-15T02:55:59.387Z,58.00
2023-02-15T02:59:10.104Z,57.46
2023-02-15T03:02:19.637Z,57.64
2023-02-15T03:05:29.692Z,57.71
2023-02-15T03:08:38.292Z,57.89
2023-02-15T03:11:42.084Z,57.74
2023-02-15T03:14:49.161Z,57.14
2023-02-15T03:17:58.261Z,58.04
2023-02-15T03:21:06.232Z,58.63
2023-02-15T03:24:16.307Z,59.62
2023-02-15T03:27:24.971Z,59.38
2023-02-15T03:30:32.234Z,59.83
2023-02-15T03:33:40.878Z,59.24
2023-02-15T03:36:48.941Z,59.46
2023-02-15T03:39:57.950Z,58.97
2023-02-15T03:43:07.554Z,59.80
2023-02-15T03:46:18.145Z,59.59
2023-02-15T03:49:27.276Z,59.33
2023-02-15T03:52:34.894Z,58.78
2023-02-15T03:55:38.715Z,59.13
2023-02-15T03:58:59.716Z,59.46
2023-02-15T04:02:15.863Z,59.10
2023-02-15T04:05:19.707Z,60.40
2023-02-15T04:08:45.433Z,59.56
2023-02-15T04:11:48.086Z,58.82
2023-02-15T04:15:09.115Z,58.87
2023-02-15T04:18:13.160Z,58.67
2023-02-15T04:21:34.659Z,58.66
2023-02-15T04:24:57.006Z,58.76
2023-02-15T04:28:00.653Z,58.26
2023-02-15T04:31:04.224Z,58.60
2023-02-15T04:34:07.975Z,58.61
2023-02-15T04:37:12.586Z,57.71
2023-02-15T04:40:19.717Z,57.81
2023-02-15T04:43:23.507Z,58.07
2023-02-15T04:46:27.498Z,58.29
2023-02-15T04:49:31.065Z,59.09
2023-02-15T04:52:34.632Z,58.45
2023-02-15T04:55:39.676Z,58.54
2023-02-15T04:58:43.425Z,57.70
2023-02-15T05:01:47.034Z,59.73
2023-02-15T05:04:50.534Z,58.53
2023-02-15T05:07:54.257Z,57.98
2023-02-15T05:10:59.861Z,58.10
2023-02-15T05:14:03.414Z,58.57
2023-02-15T05:17:06.976Z,58.41
2023-02-15T05:20:11.732Z,58.09
2023-02-15T05:23:15.615Z,58.36
2023-02-15T05:26:39.747Z,58.42
2023-02-15T05:29:43.312Z,58.35
2023-02-15T05:32:47.127Z,58.61
2023-02-15T05:35:50.921Z,57.86
2023-02-15T05:38:54.580Z,58.41
2023-02-15T05:42:02.728Z,59.10
2023-02-15T05:45:07.351Z,58.75
2023-02-15T05:48:11.164Z,59.27
2023-02-15T05:51:17.090Z,58.90
2023-02-15T05:54:20.646Z,59.84
2023-02-15T05:57:25.701Z,59.88
2023-02-15T06:00:29.434Z,59.56
2023-02-15T06:03:33.121Z,58.75
2023-02-15T06:06:37.105Z,58.92
2023-02-15T06:09:40.853Z,58.39
2023-02-15T06:12:46.463Z,58.26
2023-02-15T06:15:50.325Z,57.95
2023-02-15T06:18:54.087Z,58.24
2023-02-15T06:21:57.884Z,57.50
2023-02-15T06:25:01.723Z,56.82
2023-02-15T06:28:07.247Z,56.40
2023-02-15T06:31:11.457Z,55.33
2023-02-15T06:34:15.322Z,55.02
2023-02-15T06:37:19.087Z,55.49
2023-02-15T06:40:22.984Z,54.48
2023-02-15T06:43:28.128Z,53.63
2023-02-15T06:46:31.923Z,53.42
2023-02-15T06:49:35.612Z,52.60
2023-02-15T06:52:39.464Z,52.53
2023-02-15T06:55:43.282Z,52.16
2023-02-15T06:58:50.608Z,51.88
2023-02-15T07:01:54.449Z,50.92
2023-02-15T07:04:58.268Z,50.80
2023-02-15T07:08:02.251Z,50.91
2023-02-15T07:11:20.566Z,50.33
2023-02-15T07:14:28.118Z,49.71
2023-02-15T07:17:35.924Z,50.25
2023-02-15T07:20:42.746Z,50.71
2023-02-15T07:23:46.495Z,50.03
2023-02-15T07:26:50.195Z,49.94
2023-02-15T07:29:55.401Z,48.71
2023-02-15T07:33:17.375Z,47.28
2023-02-15T07:36:21.316Z,47.21
2023-02-15T07:39:25.035Z,47.12
2023-02-15T07:42:28.736Z,46.65
2023-02-15T07:45:34.364Z,46.35
2023-02-15T07:48:39.444Z,47.03
2023-02-15T07:51:43.361Z,46.97
2023-02-15T07:54:47.130Z,46.71
2023-02-15T07:57:52.108Z,46.35
2023-02-15T08:01:02.987Z,45.94
2023-02-15T08:04:08.780Z,44.82
2023-02-15T08:07:12.566Z,44.68
2023-02-15T08:10:36.329Z,44.75
2023-02-15T08:13:54.816Z,44.76
2023-02-15T08:17:03.897Z,44.26
2023-02-15T08:20:08.810Z,43.87
2023-02-15T08:23:12.594Z,43.85
2023-02-15T08:26:18.110Z,43.08
2023-02-15T08:29:23.614Z,44.35
2023-02-15T08:32:29.264Z,43.88
2023-02-15T08:35:32.922Z,42.99
2023-02-15T08:38:36.806Z,42.88
2023-02-15T08:41:42.354Z,42.23
2023-02-15T08:44:46.235Z,43.16
2023-02-15T08:47:51.478Z,42.21
2023-02-15T08:50:55.321Z,41.64
2023-02-15T08:54:01.151Z,41.08
2023-02-15T08:57:04.952Z,40.73
2023-02-15T09:00:10.213Z,42.51
2023-02-15T09:03:15.503Z,42.03
2023-02-15T09:06:19.883Z,41.08
2023-02-15T09:09:24.302Z,40.10
2023-02-15T09:12:28.042Z,40.01
2023-02-15T09:15:31.878Z,39.42
2023-02-15T09:18:39.101Z,38.90
2023-02-15T09:21:43.280Z,38.71
2023-02-15T09:24:46.948Z,38.33
2023-02-15T09:27:50.787Z,38.32
2023-02-15T09:30:54.651Z,38.72
2023-02-15T09:34:02.049Z,39.41
2023-02-15T09:37:08.067Z,39.39
2023-02-15T09:40:17.739Z,38.92
2023-02-15T09:43:32.333Z,38.67
2023-02-15T09:46:49.869Z,39.29
2023-02-15T09:50:04.471Z,38.62
2023-02-15T09:53:35.508Z,39.54
2023-02-15T09:56:46.206Z,39.65
2023-02-15T09:59:58.815Z,38.33
2023-02-15T10:03:18.825Z,37.81
2023-02-15T10:06:34.450Z,37.18
2023-02-15T10:09:51.415Z,36.90
2023-02-15T10:13:10.815Z,36.30
2023-02-15T10:16:29.219Z,35.91
2023-02-15T10:19:45.073Z,37.17
2023-02-15T10:23:11.208Z,36.70
2023-02-15T10:26:20.842Z,36.62
2023-02-15T10:29:34.364Z,36.94
2023-02-15T10:32:44.102Z,36.68
2023-02-15T10:35:56.486Z,35.78
2023-02-15T10:39:09.962Z,35.22
2023-02-15T10:42:20.160Z,35.01
2023-02-15T10:45:33.354Z,35.06
2023-02-15T10:49:13.857Z,34.94
2023-02-15T10:52:31.722Z,34.42
2023-02-15T10:55:53.444Z,34.22
2023-02-15T10:59:22.851Z,33.70
2023-02-15T11:02:38.531Z,34.57
2023-02-15T11:05:56.130Z,33.91
2023-02-15T11:09:07.441Z,33.97
2023-02-15T11:12:17.571Z,33.93
2023-02-15T11:15:28.687Z,33.61
2023-02-15T11:18:37.040Z,34.18
2023-02-15T11:21:46.012Z,33.86
2023-02-15T11:24:50.254Z,34.18
2023-02-15T11:27:57.070Z,34.02
2023-02-15T11:31:07.877Z,33.89
2023-02-15T11:34:20.071Z,34.36
2023-02-15T11:37:31.288Z,34.18
2023-02-15T11:40:38.558Z,33.73
2023-02-15T11:43:50.641Z,33.22
2023-02-15T11:46:55.214Z,32.96
2023-02-15T11:49:59.939Z,32.54
2023-02-15T11:53:07.027Z,32.82
2023-02-15T11:56:17.592Z,32.85
2023-02-15T11:59:32.738Z,32.46
2023-02-15T12:02:40.035Z,32.36
2023-02-15T12:05:48.108Z,32.12
2023-02-15T12:08:58.380Z,32.20
2023-02-15T12:12:24.338Z,32.25
2023-02-15T12:15:36.497Z,32.73
2023-02-15T12:18:43.009Z,32.03
2023-02-15T12:21:51.695Z,32.40
2023-02-15T12:24:58.778Z,32.54
2023-02-15T12:28:02.620Z,32.39
2023-02-15T12:31:21.447Z,32.18
2023-02-15T12:34:28.440Z,31.54
2023-02-15T12:37:35.992Z,31.69
2023-02-15T12:40:41.416Z,31.58
2023-02-15T12:43:46.478Z,32.54
2023-02-15T12:47:02.099Z,32.11
2023-02-15T12:50:18.190Z,32.00
2023-02-15T12:53:24.628Z,31.95
2023-02-15T12:56:29.998Z,31.57
2023-02-15T12:59:33.736Z,31.17
2023-02-15T13:02:45.359Z,31.00
2023-02-15T13:05:54.378Z,31.91
2023-02-15T13:09:00.832Z,32.56
2023-02-15T13:12:14.511Z,32.21
2023-02-15T13:15:28.943Z,31.80
2023-02-15T13:18:38.942Z,31.20
2023-02-15T13:21:46.755Z,31.17
2023-02-15T13:24:57.173Z,31.39
2023-02-15T13:28:05.077Z,31.14
2023-02-15T13:31:16.518Z,31.30
2023-02-15T13:34:27.397Z,31.17
2023-02-15T13:37:58.125Z,31.07
2023-02-15T13:41:06.604Z,30.89
2023-02-15T13:44:19.657Z,30.79
2023-02-15T13:47:29.585Z,31.24
2023-02-15T13:50:50.975Z,31.34
2023-02-15T13:54:26.367Z,31.17
2023-02-15T13:57:47.092Z,31.28
2023-02-15T14:01:01.848Z,31.09
2023-02-15T14:04:24.496Z,31.45
2023-02-15T14:07:44.466Z,31.51
2023-02-15T14:10:59.164Z,32.19
2023-02-15T14:14:29.821Z,32.02
2023-02-15T14:17:46.910Z,31.85
2023-02-15T14:21:01.909Z,31.84
2023-02-15T14:24:23.587Z,32.13
2023-02-15T14:27:40.569Z,32.33
2023-02-15T14:30:49.470Z,32.60
2023-02-15T14:33:57.751Z,32.51
2023-02-15T14:37:01.933Z,32.37
2023-02-15T14:40:32.276Z,32.70
2023-02-15T14:43:57.368Z,32.79
2023-02-15T14:47:08.619Z,32.66
2023-02-15T14:50:43.917Z,32.74
2023-02-15T14:53:48.580Z,33.00
2023-02-15T14:57:26.445Z,32.92
2023-02-15T15:00:40.767Z,33.15
2023-02-15T15:03:54.221Z,33.17
2023-02-15T15:07:08.086Z,32.82
2023-02-15T15:10:38.951Z,32.46
2023-02-15T15:14:03.043Z,32.88
2023-02-15T15:17:08.004Z,33.03
2023-02-15T15:20:17.659Z,33.18
2023-02-15T15:23:43.783Z,33.54
2023-02-15T15:26:51.994Z,33.57
2023-02-15T15:29:57.430Z,34.26
2023-02-15T15:33:15.728Z,34.27
2023-02-15T15:37:04.457Z,34.25
2023-02-15T15:40:50.470Z,34.72
2023-02-15T15:44:32.466Z,34.79
2023-02-15T15:47:58.762Z,34.92
2023-02-15T15:51:17.150Z,35.47
2023-02-15T15:54:23.247Z,35.38
2023-02-15T15:57:31.289Z,35.45
2023-02-15T16:00:43.279Z,35.68
2023-02-15T16:03:57.464Z,35.85
2023-02-15T16:07:17.148Z,35.90
2023-02-15T16:10:26.011Z,35.82
2023-02-15T16:13:30.161Z,36.54
2023-02-15T16:16:34.226Z,36.67
2023-02-15T16:19:42.638Z,36.55
2023-02-15T16:22:46.830Z,36.82
2023-02-15T16:26:03.763Z,37.22
2023-02-15T16:29:17.124Z,37.66
2023-02-15T16:32:23.826Z,37.70
2023-02-15T16:35:29.135Z,37.61
2023-02-15T16:39:02.347Z,37.99
2023-02-15T16:42:06.688Z,38.32
2023-02-15T16:45:17.378Z,38.58
2023-02-15T16:48:26.267Z,38.89
2023-02-15T16:51:34.647Z,39.13
2023-02-15T16:54:38.684Z,39.20
2023-02-15T16:57:46.466Z,39.30
2023-02-15T17:00:50.597Z,39.22
2023-02-15T17:04:13.899Z,39.63
2023-02-15T17:07:20.682Z,39.81
2023-02-15T17:10:37.656Z,40.24
2023-02-15T17:13:41.770Z,40.15
2023-02-15T17:16:50.603Z,40.42
2023-02-15T17:19:57.302Z,40.87
2023-02-15T17:23:03.137Z,41.14
2023-02-15T17:26:16.662Z,41.09
2023-02-15T17:29:34.956Z,41.01
2023-02-15T17:32:39.411Z,41.06
2023-02-15T17:35:43.088Z,41.01
2023-02-15T17:39:06.605Z,41.27
2023-02-15T17:42:10.342Z,41.18
2023-02-15T17:45:15.429Z,41.51
2023-02-15T17:48:24.319Z,41.77
2023-02-15T17:51:28.227Z,41.95
2023-02-15T17:54:50.808Z,42.67
2023-02-15T17:57:54.556Z,43.04
2023-02-15T18:01:19.277Z,43.71
2023-02-15T18:04:41.112Z,43.71
2023-02-15T18:08:02.162Z,44.47
2023-02-15T18:11:24.536Z,44.57
2023-02-15T18:14:28.363Z,44.06
2023-02-15T18:17:36.325Z,44.46
2023-02-15T18:20:41.995Z,44.14
2023-02-15T18:23:46.128Z,43.84
2023-02-15T18:26:51.837Z,43.96
2023-02-15T18:29:55.608Z,43.97
2023-02-15T18:33:01.161Z,43.85
2023-02-15T18:36:06.944Z,43.89
2023-02-15T18:39:26.060Z,44.12
2023-02-15T18:42:34.593Z,44.06
2023-02-15T18:45:40.298Z,44.49
2023-02-15T18:48:46.545Z,44.51
2023-02-15T18:51:50.466Z,44.74
2023-02-15T18:54:57.554Z,44.43
2023-02-15T18:58:03.229Z,44.54
2023-02-15T19:01:07.236Z,45.31
2023-02-15T19:04:10.966Z,45.93
2023-02-15T19:07:19.901Z,45.27
2023-02-15T19:10:25.901Z,45.96
2023-02-15T19:13:31.280Z,45.44
2023-02-15T19:16:37.883Z,45.39
2023-02-15T19:19:41.872Z,45.40
2023-02-15T19:22:46.954Z,45.36
2023-02-15T19:25:52.704Z,45.59
2023-02-15T19:28:57.887Z,45.47
2023-02-15T19:32:01.984Z,46.09
2023-02-15T19:35:06.553Z,46.25
2023-02-15T19:38:18.869Z,46.28
2023-02-15T19:41:26.364Z,46.55
2023-02-15T19:44:31.636Z,46.49
2023-02-15T19:47:35.352Z,46.95
2023-02-15T19:50:39.192Z,46.83
2023-02-15T19:53:42.940Z,47.00
2023-02-15T19:56:46.752Z,46.71
2023-02-15T19:59:52.095Z,47.00
2023-02-15T20:02:56.269Z,47.13
2023-02-15T20:06:00.098Z,47.69
2023-02-15T20:09:05.403Z,49.06
2023-02-15T20:12:21.091Z,48.66
2023-02-15T20:15:29.031Z,49.14
2023-02-15T20:18:33.031Z,49.28
2023-02-15T20:21:37.410Z,48.49
2023-02-15T20:24:41.233Z,48.15
2023-02-15T20:27:45.021Z,48.36
2023-02-15T20:30:51.060Z,48.21
2023-02-15T20:33:55.404Z,48.22
2023-02-15T20:36:59.452Z,48.44
2023-02-15T20:40:03.192Z,48.79
2023-02-15T20:43:16.571Z,48.84
2023-02-15T20:46:21.807Z,49.37
2023-02-15T20:49:26.714Z,49.76
2023-02-15T20:52:30.480Z,50.01
2023-02-15T20:55:34.301Z,49.74
2023-02-15T20:58:38.733Z,50.29
2023-02-15T21:01:44.131Z,49.77
2023-02-15T21:04:48.114Z,49.96
2023-02-15T21:07:53.134Z,50.51
2023-02-15T21:10:56.982Z,50.47
2023-02-15T21:14:00.704Z,50.78
2023-02-15T21:17:06.092Z,50.56
2023-02-15T21:20:14.683Z,50.19
2023-02-15T21:23:21.501Z,50.58
2023-02-15T21:26:25.304Z,50.48
2023-02-15T21:29:31.072Z,51.85
2023-02-15T21:32:36.960Z,51.26
2023-02-15T21:35:40.983Z,51.32
2023-02-15T21:38:45.523Z,51.87
2023-02-15T21:42:08.575Z,51.73
2023-02-15T21:45:34.066Z,51.68
2023-02-15T21:48:39.283Z,51.76
2023-02-15T21:52:00.423Z,52.89
2023-02-15T21:55:07.413Z,52.43
2023-02-15T21:58:20.443Z,52.67
2023-02-15T22:01:26.410Z,52.40
2023-02-15T22:04:32.481Z,53.39
2023-02-15T22:07:36.260Z,52.76
2023-02-15T22:10:40.393Z,52.35
2023-02-15T22:13:45.319Z,54.12
2023-02-15T22:16:49.171Z,53.73
2023-02-15T22:19:54.510Z,54.45
2023-02-15T22:22:58.385Z,54.11
2023-02-15T22:26:06.418Z,52.96
2023-02-15T22:29:15.260Z,53.21
2023-02-15T22:32:20.491Z,52.82
2023-02-15T22:35:28.159Z,54.08
2023-02-15T22:38:31.974Z,54.79
2023-02-15T22:41:35.752Z,53.97
2023-02-15T22:44:39.758Z,55.18
2023-02-15T22:47:43.547Z,55.65
2023-02-15T22:50:48.790Z,55.15
2023-02-15T22:53:53.999Z,54.71
2023-02-15T22:56:57.805Z,55.59
2023-02-15T23:00:02.041Z,55.61
2023-02-15T23:03:15.100Z,55.20
2023-02-15T23:06:20.414Z,55.02
2023-02-15T23:09:24.076Z,54.82
2023-02-15T23:12:50.456Z,55.69
2023-02-15T23:15:57.289Z,56.96
2023-02-15T23:19:01.083Z,56.21
2023-02-15T23:22:06.327Z,55.81
2023-02-15T23:25:12.304Z,56.22
2023-02-15T23:28:21.387Z,56.04
2023-02-15T23:31:27.768Z,55.44
2023-02-15T23:34:31.886Z,54.84
2023-02-15T23:37:37.010Z,54.82
2023-02-15T23:40:58.130Z,54.79
2023-02-15T23:44:04.980Z,55.12
2023-02-15T23:47:20.005Z,54.48
2023-02-15T23:50:25.863Z,54.75
2023-02-15T23:53:31.457Z,54.19
2023-02-15T23:56:35.267Z,54.52
2023-02-15T23:59:46.828Z,55.21
